Time;durP1;ratioP1;P1;durP2;ratioP2;P2;SDS_P1;SDS_P2;PMS_P1;PMS_P2;Temp;Humidity;BMP_temperature;BMP_pressure;BME280_temperature;BME280_humidity;BME280_pressure;Samples;Min_cycle;Max_cycle;Signal;HPM_P1;HPM_P2
2021/05/30 00:01:26;;;;;;;6.25;3.90;;;;;;;12.77;57.07;99740.44;3578545;40;20041;-60
2021/05/30 00:03:54;;;;;;;4.90;3.25;;;;;;;12.83;56.85;99735.22;3578513;40;20052;-61
2021/05/30 00:06:21;;;;;;;4.35;3.47;;;;;;;12.86;56.43;99740.16;3578617;40;20430;-61
2021/05/30 00:08:48;;;;;;;4.65;3.90;;;;;;;12.80;56.69;99738.25;3578085;40;20391;-61
2021/05/30 00:11:15;;;;;;;5.50;4.43;;;;;;;12.67;56.89;99739.91;3578584;40;20088;-61
2021/05/30 00:13:44;;;;;;;4.65;4.15;;;;;;;12.67;56.99;99743.38;3578374;40;20055;-60
2021/05/30 00:16:13;;;;;;;7.80;4.40;;;;;;;12.53;57.59;99739.72;3578434;40;20052;-61
2021/05/30 00:18:40;;;;;;;5.38;3.90;;;;;;;12.55;57.47;99745.66;3578076;40;20400;-61
2021/05/30 00:21:08;;;;;;;5.97;4.00;;;;;;;12.42;57.87;99748.13;3578588;40;20405;-61
2021/05/30 00:23:35;;;;;;;5.03;3.63;;;;;;;12.38;58.12;99750.31;3578632;40;20052;-60
2021/05/30 00:26:04;;;;;;;6.72;4.57;;;;;;;12.38;57.93;99755.59;3578348;40;20053;-61
2021/05/30 00:28:31;;;;;;;8.77;3.90;;;;;;;12.29;57.78;99751.41;3578029;40;20418;-60
2021/05/30 00:30:58;;;;;;;4.95;3.90;;;;;;;12.27;58.05;99761.34;3578569;40;20049;-61
2021/05/30 00:33:26;;;;;;;5.75;4.15;;;;;;;12.27;57.76;99761.34;3577804;40;20081;-61
2021/05/30 00:35:54;;;;;;;4.68;3.75;;;;;;;12.20;58.21;99759.59;3580150;40;20084;-61
2021/05/30 00:38:21;;;;;;;7.63;4.20;;;;;;;12.08;58.15;99754.75;3579576;40;20052;-61
2021/05/30 00:40:48;;;;;;;5.65;3.42;;;;;;;12.04;58.33;99756.09;3578086;40;20425;-61
2021/05/30 00:43:15;;;;;;;5.55;3.97;;;;;;;12.09;57.95;99752.91;3578128;40;20050;-61
2021/05/30 00:45:43;;;;;;;6.07;3.40;;;;;;;11.97;57.66;99752.50;3578431;40;20081;-61
2021/05/30 00:48:11;;;;;;;3.92;3.47;;;;;;;11.89;58.09;99749.91;3577885;40;20037;-61
2021/05/30 00:50:39;;;;;;;4.55;3.53;;;;;;;11.72;58.07;99746.53;3578071;40;20052;-61
2021/05/30 00:53:07;;;;;;;7.03;4.10;;;;;;;11.74;57.90;99752.47;3578147;40;20052;-61
2021/05/30 00:55:34;;;;;;;7.30;5.10;;;;;;;11.74;57.82;99756.94;3579332;40;20057;-61
2021/05/30 00:58:02;;;;;;;6.50;4.70;;;;;;;11.75;57.55;99748.81;3579712;40;20052;-61
2021/05/30 01:00:30;;;;;;;6.88;5.82;;;;;;;11.80;57.55;99756.25;3580807;40;20051;-61
2021/05/30 01:02:57;;;;;;;6.60;5.35;;;;;;;11.84;57.56;99742.50;3587187;40;20059;-61
2021/05/30 01:05:24;;;;;;;8.52;5.32;;;;;;;11.89;57.15;99752.56;3586524;40;20036;-61
2021/05/30 01:07:52;;;;;;;5.47;4.93;;;;;;;11.88;57.42;99749.09;3586575;40;20037;-60
2021/05/30 01:10:27;;;;;;;8.40;4.95;;;;;;;11.97;57.31;99752.50;3586984;40;20053;-61
2021/05/30 01:12:54;;;;;;;;;;;;;;;12.00;56.83;99753.97;3586786;40;20044;-61
2021/05/30 01:15:21;;;;;;;8.15;6.47;;;;;;;12.00;57.19;99753.97;3585493;40;19973;-61
2021/05/30 01:17:52;;;;;;;7.00;6.07;;;;;;;11.98;57.21;99748.03;3579558;40;20118;-61
2021/05/30 01:20:19;;;;;;;10.65;7.05;;;;;;;11.91;57.30;99755.84;3579983;40;20045;-61
2021/05/30 01:22:48;;;;;;;9.82;7.00;;;;;;;11.85;57.72;99762.69;3579528;40;20056;-61
2021/05/30 01:25:18;;;;;;;6.50;5.80;;;;;;;11.90;57.87;99756.88;3579623;40;20056;-61
2021/05/30 01:27:47;;;;;;;6.82;5.53;;;;;;;11.85;57.93;99752.09;3579543;40;20048;-61
2021/05/30 01:30:16;;;;;;;6.88;5.80;;;;;;;11.83;57.80;99754.09;3579572;40;20052;-61
2021/05/30 01:32:44;;;;;;;7.50;5.13;;;;;;;11.84;58.01;99754.94;3579424;40;20085;-61
2021/05/30 01:35:13;;;;;;;8.18;5.18;;;;;;;11.85;58.28;99752.09;3579510;40;20040;-61
2021/05/30 01:37:41;;;;;;;6.88;5.05;;;;;;;11.68;58.38;99753.19;3579301;40;20312;-61
2021/05/30 01:40:10;;;;;;;5.30;4.80;;;;;;;11.59;58.89;99756.88;3579445;40;20053;-61
2021/05/30 01:42:38;;;;;;;7.60;5.38;;;;;;;11.54;59.32;99756.59;3579404;40;20075;-60
2021/05/30 01:45:07;;;;;;;6.65;5.28;;;;;;;11.49;59.30;99761.59;3579565;40;20387;-61
2021/05/30 01:47:37;;;;;;;14.02;6.65;;;;;;;11.44;59.46;99754.19;3579110;40;20056;-61
2021/05/30 01:50:07;;;;;;;7.40;5.88;;;;;;;11.34;59.83;99753.56;3579495;40;20063;-61
2021/05/30 01:52:34;;;;;;;7.38;6.00;;;;;;;11.26;60.01;99762.38;3579545;40;20072;-60
2021/05/30 01:55:02;;;;;;;8.18;6.25;;;;;;;11.18;60.28;99759.75;3579467;40;20053;-63
2021/05/30 01:57:30;;;;;;;8.38;5.80;;;;;;;11.13;60.61;99744.41;3579023;40;20049;-61
2021/05/30 01:59:58;;;;;;;7.05;6.35;;;;;;;11.13;60.53;99759.47;3579268;40;20052;-61
2021/05/30 02:02:26;;;;;;;9.80;5.90;;;;;;;11.12;60.54;99755.19;3579461;40;20045;-61
2021/05/30 02:04:54;;;;;;;5.85;5.15;;;;;;;11.11;60.66;99756.19;3579610;40;20089;-61
2021/05/30 02:07:21;;;;;;;7.78;5.25;;;;;;;11.09;60.60;99761.63;3579133;40;20386;-61
2021/05/30 02:09:49;;;;;;;6.07;5.25;;;;;;;11.09;60.64;99761.63;3579104;40;20048;-61
2021/05/30 02:12:18;;;;;;;8.40;5.63;;;;;;;11.10;60.47;99763.28;3579306;40;20052;-60
2021/05/30 02:14:46;;;;;;;6.13;4.78;;;;;;;11.08;60.46;99759.97;3579117;40;20045;-60
2021/05/30 02:17:14;;;;;;;5.78;5.00;;;;;;;10.97;60.81;99760.34;3577916;40;20084;-61
2021/05/30 02:19:41;;;;;;;8.23;5.82;;;;;;;10.93;61.29;99768.81;3579099;40;20080;-61
2021/05/30 02:22:08;;;;;;;8.73;6.90;;;;;;;10.89;61.59;99763.03;3579185;40;20045;-60
2021/05/30 02:24:36;;;;;;;6.30;5.53;;;;;;;10.91;61.49;99764.53;3578344;40;20052;-60
2021/05/30 02:27:04;;;;;;;7.40;5.85;;;;;;;10.83;61.74;99764.56;3579022;40;20037;-61
2021/05/30 02:29:34;;;;;;;7.32;5.97;;;;;;;10.79;62.11;99765.06;3579254;40;20119;-60
2021/05/30 02:32:03;;;;;;;6.65;5.90;;;;;;;10.76;62.16;99770.69;3579141;40;20326;-62
2021/05/30 02:34:31;;;;;;;7.32;5.80;;;;;;;10.78;62.20;99768.72;3579012;40;20402;-61
2021/05/30 02:36:59;;;;;;;6.00;4.82;;;;;;;10.83;62.11;99771.66;3579089;40;20075;-60
2021/05/30 02:39:26;;;;;;;8.38;4.25;;;;;;;10.73;62.09;99766.56;3579133;40;20049;-60
2021/05/30 02:41:54;;;;;;;4.80;4.30;;;;;;;10.65;62.44;99766.56;3579542;40;20055;-60
2021/05/30 02:44:21;;;;;;;8.25;5.60;;;;;;;10.45;62.60;99760.88;3579832;40;20045;-60
2021/05/30 02:46:48;;;;;;;7.30;6.32;;;;;;;10.38;63.07;99768.63;3579640;40;20048;-60
2021/05/30 02:49:17;;;;;;;6.97;6.25;;;;;;;10.20;63.90;99770.59;3613316;22;20052;-64
2021/05/30 02:51:45;;;;;;;8.52;5.93;;;;;;;10.09;63.86;99769.13;3579122;40;20088;-64
2021/05/30 02:54:13;;;;;;;7.57;6.10;;;;;;;10.13;63.92;99767.81;3579188;40;20053;-65
2021/05/30 02:56:41;;;;;;;8.93;6.13;;;;;;;10.21;64.02;99769.63;3579045;40;20068;-65
2021/05/30 02:59:08;;;;;;;8.70;5.90;;;;;;;10.29;63.54;99774.09;3577648;40;20057;-65
2021/05/30 03:01:35;;;;;;;8.80;6.10;;;;;;;10.34;63.59;99769.13;3578848;40;20052;-65
2021/05/30 03:04:03;;;;;;;9.48;6.68;;;;;;;10.38;63.60;99765.16;3579086;40;20049;-65
2021/05/30 03:06:30;;;;;;;6.90;5.93;;;;;;;10.34;63.47;99761.22;3578848;40;20048;-65
2021/05/30 03:08:59;;;;;;;7.40;5.88;;;;;;;10.36;63.63;99777.72;3578794;40;20418;-65
2021/05/30 03:11:27;;;;;;;7.60;5.30;;;;;;;10.38;63.63;99775.72;3579025;40;20025;-65
2021/05/30 03:13:54;;;;;;;7.68;5.68;;;;;;;10.40;63.47;99773.75;3578044;40;20053;-65
2021/05/30 03:16:22;;;;;;;5.22;4.53;;;;;;;10.35;63.46;99778.72;3578678;40;20053;-65
2021/05/30 03:18:49;;;;;;;7.00;6.00;;;;;;;10.34;63.65;99783.16;3577780;40;20099;-66
2021/05/30 03:21:17;;;;;;;8.95;5.18;;;;;;;10.20;63.69;99781.16;3578877;40;20053;-65
2021/05/30 03:23:44;;;;;;;7.93;5.65;;;;;;;10.14;63.82;99779.19;3578439;40;20401;-66
2021/05/30 03:26:13;;;;;;;8.35;5.28;;;;;;;10.16;64.25;99779.84;3577969;40;20053;-65
2021/05/30 03:28:40;;;;;;;7.38;5.75;;;;;;;10.24;63.94;99779.84;3578633;40;20037;-65
2021/05/30 03:31:07;;;;;;;7.15;5.53;;;;;;;10.32;63.75;99784.31;3578966;40;20426;-65
2021/05/30 03:33:35;;;;;;;6.38;5.55;;;;;;;10.33;63.71;99778.06;3579059;40;20029;-65
2021/05/30 03:36:06;;;;;;;7.05;6.35;;;;;;;10.26;63.75;99779.72;3578945;40;20088;-65
2021/05/30 03:38:34;;;;;;;7.05;6.07;;;;;;;10.15;64.06;99778.19;3578531;40;20077;-65
2021/05/30 03:41:02;;;;;;;10.52;7.30;;;;;;;10.08;64.13;99777.19;3579076;40;20048;-66
2021/05/30 03:43:30;;;;;;;7.78;6.97;;;;;;;9.97;64.46;99781.00;3578910;40;20053;-65
2021/05/30 03:45:58;;;;;;;8.57;6.55;;;;;;;9.84;64.70;99772.75;3578884;40;20034;-65
2021/05/30 03:48:26;;;;;;;7.97;6.82;;;;;;;9.80;65.24;99768.78;3579033;40;20037;-64
2021/05/30 03:50:54;;;;;;;7.32;6.57;;;;;;;9.82;65.04;99775.53;3578322;40;20052;-65
2021/05/30 03:53:22;;;;;;;7.65;6.53;;;;;;;9.77;65.14;99769.13;3579211;40;20041;-65
2021/05/30 03:55:50;;;;;;;8.07;6.63;;;;;;;9.78;65.17;99774.22;3579211;40;20081;-63
2021/05/30 03:58:17;;;;;;;9.23;6.70;;;;;;;9.76;65.28;99768.28;3577747;40;20052;-65
2021/05/30 04:00:45;;;;;;;10.10;7.63;;;;;;;9.83;65.33;99779.81;3578714;40;20052;-65
2021/05/30 04:03:13;;;;;;;8.43;6.88;;;;;;;9.86;65.41;99773.41;3578643;40;20059;-65
2021/05/30 04:05:40;;;;;;;7.78;6.03;;;;;;;9.95;65.42;99777.69;3578681;40;20049;-65
2021/05/30 04:08:07;;;;;;;9.90;6.95;;;;;;;10.07;64.94;99783.47;3578367;40;20069;-65
2021/05/30 04:10:35;;;;;;;9.77;7.65;;;;;;;10.17;64.69;99781.50;3578678;40;20052;-65
2021/05/30 04:13:02;;;;;;;9.35;6.82;;;;;;;10.07;64.39;99779.03;3580975;40;20051;-65
2021/05/30 04:15:29;;;;;;;12.10;8.50;;;;;;;10.09;64.54;99778.88;3580745;40;20052;-65
2021/05/30 04:17:57;;;;;;;8.25;6.95;;;;;;;10.10;64.84;99781.34;3579702;40;20057;-65
2021/05/30 04:20:25;;;;;;;10.60;8.70;;;;;;;10.16;64.64;99785.13;3580760;40;20060;-65
2021/05/30 04:22:52;;;;;;;9.52;8.00;;;;;;;10.21;64.62;99787.28;3579337;40;20072;-65
2021/05/30 04:25:19;;;;;;;9.30;7.50;;;;;;;10.20;64.31;99783.78;3578472;40;20052;-65
2021/05/30 04:27:47;;;;;;;11.93;8.15;;;;;;;10.15;64.37;99789.59;3577255;40;20048;-65
2021/05/30 04:30:16;;;;;;;11.68;8.35;;;;;;;10.13;64.68;99796.03;3580185;40;20064;-65
2021/05/30 04:32:43;;;;;;;10.55;8.27;;;;;;;10.22;64.77;99781.84;3580269;40;20057;-65
2021/05/30 04:35:12;;;;;;;12.05;9.23;;;;;;;10.32;64.70;99779.03;3579095;40;20051;-65
2021/05/30 04:37:40;;;;;;;10.95;8.80;;;;;;;10.44;64.33;99780.34;3581834;40;20053;-65
2021/05/30 04:40:09;;;;;;;11.38;8.98;;;;;;;10.46;64.36;99778.38;3583061;40;20053;-65
2021/05/30 04:42:37;;;;;;;13.35;9.30;;;;;;;10.50;64.07;99781.50;3583174;40;20049;-65
2021/05/30 04:45:06;;;;;;;15.30;10.10;;;;;;;10.55;64.37;99779.19;3580341;40;20047;-65
2021/05/30 04:47:34;;;;;;;12.07;9.70;;;;;;;10.68;64.08;99778.66;3580010;40;20060;-65
2021/05/30 04:50:01;;;;;;;16.02;11.57;;;;;;;10.75;64.08;99777.81;3580055;40;20097;-65
2021/05/30 04:52:29;;;;;;;13.60;10.18;;;;;;;10.85;63.89;99767.84;3580293;40;20460;-65
2021/05/30 04:54:57;;;;;;;14.25;10.90;;;;;;;10.89;63.55;99773.63;3578758;40;20060;-65
2021/05/30 04:57:24;;;;;;;12.38;10.52;;;;;;;10.96;63.49;99776.41;3579639;40;20045;-65
2021/05/30 04:59:51;;;;;;;15.27;11.23;;;;;;;10.98;63.42;99779.69;3579856;40;20053;-65
2021/05/30 05:02:18;;;;;;;18.27;11.80;;;;;;;11.03;63.42;99778.19;3579750;40;20048;-65
2021/05/30 05:04:45;;;;;;;13.32;11.25;;;;;;;11.05;63.12;99783.31;3579633;40;20103;-65
2021/05/30 05:07:13;;;;;;;12.88;11.18;;;;;;;11.08;63.43;99785.63;3579292;40;20052;-65
2021/05/30 05:09:41;;;;;;;14.65;11.48;;;;;;;11.13;63.30;99786.75;3579653;40;20037;-65
2021/05/30 05:12:10;;;;;;;13.43;10.48;;;;;;;11.15;63.14;99776.00;3579530;40;20049;-65
2021/05/30 05:14:37;;;;;;;11.60;10.02;;;;;;;11.19;62.97;99779.13;3579616;40;20049;-65
2021/05/30 05:17:05;;;;;;;21.25;11.90;;;;;;;11.32;63.04;99776.75;3579231;40;20052;-65
2021/05/30 05:19:32;;;;;;;13.85;11.10;;;;;;;11.39;62.73;99775.06;3579591;40;20053;-65
2021/05/30 05:21:59;;;;;;;11.98;10.43;;;;;;;11.47;62.39;99779.47;3579601;40;20040;-65
2021/05/30 05:24:27;;;;;;;13.70;10.60;;;;;;;11.50;61.96;99784.41;3579498;40;20365;-65
2021/05/30 05:26:56;;;;;;;12.90;10.80;;;;;;;11.53;62.04;99784.06;3579203;40;20417;-65
2021/05/30 05:29:23;;;;;;;15.05;11.00;;;;;;;11.60;62.15;99785.84;3579616;40;20335;-66
2021/05/30 05:31:50;;;;;;;12.57;10.50;;;;;;;11.72;61.95;99782.81;3579563;40;20325;-66
2021/05/30 05:34:17;;;;;;;13.15;10.70;;;;;;;11.77;61.49;99786.56;3579627;40;20052;-65
2021/05/30 05:36:45;;;;;;;14.15;10.35;;;;;;;11.74;61.25;99786.91;3579681;40;20060;-65
2021/05/30 05:39:12;;;;;;;12.40;11.00;;;;;;;11.73;61.54;99787.09;3579248;40;20049;-65
2021/05/30 05:41:39;;;;;;;15.25;10.98;;;;;;;11.73;61.59;99782.63;3579318;40;20048;-65
2021/05/30 05:44:07;;;;;;;12.68;10.90;;;;;;;11.76;61.69;99784.94;3579608;40;20060;-65
2021/05/30 05:46:35;;;;;;;14.32;11.02;;;;;;;11.85;61.58;99780.41;3578519;40;20074;-65
2021/05/30 05:49:03;;;;;;;13.18;11.27;;;;;;;11.97;61.78;99780.84;3579252;40;20048;-65
2021/05/30 05:51:30;;;;;;;14.57;11.07;;;;;;;12.10;61.29;99778.41;3579290;40;20044;-65
2021/05/30 05:53:57;;;;;;;15.68;10.57;;;;;;;12.10;60.83;99784.53;3579589;40;20045;-65
2021/05/30 05:56:24;;;;;;;13.02;10.65;;;;;;;12.14;61.26;99782.34;3579865;40;20067;-65
2021/05/30 05:58:51;;;;;;;12.73;10.93;;;;;;;12.21;60.52;99777.16;3580336;40;20045;-65
2021/05/30 06:01:19;;;;;;;19.48;13.15;;;;;;;12.29;60.69;99785.88;3581254;40;20041;-65
2021/05/30 06:03:47;;;;;;;12.60;9.98;;;;;;;12.38;60.52;99782.13;3583127;40;20073;-66
2021/05/30 06:06:14;;;;;;;10.65;9.52;;;;;;;12.45;60.13;99787.53;3582835;40;20049;-66
2021/05/30 06:08:41;;;;;;;13.50;9.63;;;;;;;12.49;59.95;99783.53;3580065;40;20053;-65
2021/05/30 06:11:08;;;;;;;12.45;10.43;;;;;;;12.56;60.02;99788.91;3581195;40;20071;-65
2021/05/30 06:13:36;;;;;;;14.00;9.90;;;;;;;12.68;59.55;99787.47;3580194;40;20057;-65
2021/05/30 06:16:05;;;;;;;10.65;9.55;;;;;;;12.78;59.19;99793.34;3580534;40;20048;-65
2021/05/30 06:18:35;;;;;;;12.20;9.23;;;;;;;12.84;58.83;99779.31;3580422;40;20041;-65
2021/05/30 06:21:02;;;;;;;12.32;10.35;;;;;;;12.88;58.78;99785.91;3581401;40;20052;-65
2021/05/30 06:23:29;;;;;;;10.32;8.45;;;;;;;12.92;58.47;99790.84;3581838;40;20044;-65
2021/05/30 06:25:56;;;;;;;11.35;9.35;;;;;;;12.83;58.67;99787.47;3581082;40;20045;-65
2021/05/30 06:28:24;;;;;;;14.93;10.32;;;;;;;12.92;58.87;99793.50;3580408;40;20045;-65
2021/05/30 06:30:51;;;;;;;12.18;9.85;;;;;;;13.01;58.72;99789.75;3580435;40;20063;-64
2021/05/30 06:33:18;;;;;;;10.57;8.55;;;;;;;13.13;58.37;99793.56;3580533;40;20048;-64
2021/05/30 06:35:46;;;;;;;10.80;8.60;;;;;;;13.37;57.92;99789.81;3579496;40;20057;-64
2021/05/30 06:38:14;;;;;;;10.00;7.93;;;;;;;13.52;56.92;99784.47;3579063;40;20037;-64
2021/05/30 06:40:41;;;;;;;9.75;8.73;;;;;;;13.59;56.55;99788.00;3579542;40;20044;-64
2021/05/30 06:43:10;;;;;;;11.25;9.05;;;;;;;13.68;56.68;99788.75;3579448;40;20049;-64
2021/05/30 06:45:37;;;;;;;9.38;8.00;;;;;;;13.73;56.09;99787.16;3578431;40;20041;-64
2021/05/30 06:48:05;;;;;;;11.25;8.00;;;;;;;13.75;56.21;99793.09;3579130;40;20057;-64
2021/05/30 06:50:32;;;;;;;9.18;7.63;;;;;;;13.92;55.71;99803.47;3578199;40;20064;-64
2021/05/30 06:53:00;;;;;;;10.30;8.15;;;;;;;13.94;55.60;99798.81;3577662;40;20130;-64
2021/05/30 06:55:27;;;;;;;8.65;7.70;;;;;;;13.96;55.06;99799.44;3578280;40;20494;-64
2021/05/30 06:57:55;;;;;;;9.95;8.73;;;;;;;13.96;54.85;99794.97;3578837;40;20053;-64
2021/05/30 07:00:22;;;;;;;8.30;7.50;;;;;;;14.07;54.83;99794.41;3579213;40;20370;-64
2021/05/30 07:02:51;;;;;;;9.15;8.23;;;;;;;14.14;55.13;99799.81;3578102;40;20063;-64
2021/05/30 07:05:21;;;;;;;11.05;8.13;;;;;;;14.24;54.72;99791.50;3579192;40;20041;-64
2021/05/30 07:07:48;;;;;;;11.90;7.50;;;;;;;14.36;54.14;99789.97;3578955;40;20060;-64
2021/05/30 07:10:17;;;;;;;8.77;7.20;;;;;;;14.41;53.99;99792.03;3578005;40;20063;-64
2021/05/30 07:12:44;;;;;;;7.97;6.57;;;;;;;14.32;53.82;99786.84;3578974;40;20049;-64
2021/05/30 07:15:12;;;;;;;8.68;6.68;;;;;;;14.48;53.26;99784.94;3579208;40;20438;-64
2021/05/30 07:17:39;;;;;;;9.02;6.57;;;;;;;14.34;53.32;99794.66;3579438;40;20416;-64
2021/05/30 07:20:08;;;;;;;7.55;5.00;;;;;;;14.36;53.42;99789.97;3579056;40;20421;-63
2021/05/30 07:22:35;;;;;;;8.57;6.35;;;;;;;14.42;52.77;99788.38;3578162;40;20071;-64
2021/05/30 07:25:04;;;;;;;8.85;6.65;;;;;;;14.58;53.16;99788.13;3579305;40;20052;-64
2021/05/30 07:27:36;;;;;;;6.10;5.47;;;;;;;14.76;52.14;99784.94;3578864;40;20055;-64
2021/05/30 07:30:06;;;;;;;7.38;5.28;;;;;;;14.92;51.64;99784.63;3578965;40;20052;-64
2021/05/30 07:32:33;;;;;;;5.57;4.78;;;;;;;15.16;51.17;99785.97;3579193;40;20055;-64
2021/05/30 07:35:01;;;;;;;5.55;4.90;;;;;;;15.31;50.30;99794.66;3579482;40;20130;-65
2021/05/30 07:37:28;;;;;;;5.40;4.57;;;;;;;15.31;49.71;99789.34;3580659;40;20048;-67
2021/05/30 07:39:55;;;;;;;5.43;4.43;;;;;;;15.30;49.28;99793.00;3580114;40;20056;-65
2021/05/30 07:42:23;;;;;;;6.72;5.18;;;;;;;15.40;49.16;99786.50;3580132;40;20053;-64
2021/05/30 07:44:51;;;;;;;5.53;4.03;;;;;;;15.48;48.46;99789.78;3580710;40;20333;-64
2021/05/30 07:47:18;;;;;;;7.00;4.47;;;;;;;15.55;48.27;99795.13;3580882;40;20049;-64
2021/05/30 07:49:45;;;;;;;5.80;5.20;;;;;;;15.44;48.41;99788.56;3580325;40;20118;-63
2021/05/30 07:52:12;;;;;;;5.15;4.65;;;;;;;15.64;48.12;99783.28;3580379;40;20343;-63
2021/05/30 07:54:40;;;;;;;7.15;5.97;;;;;;;15.79;48.00;99775.13;3580189;40;20053;-63
2021/05/30 07:57:09;;;;;;;5.18;4.68;;;;;;;15.84;47.72;99770.03;3579975;40;20485;-64
2021/05/30 07:59:39;;;;;;;4.68;3.80;;;;;;;15.79;46.26;99767.94;3579876;40;20052;-63
2021/05/30 08:02:07;;;;;;;3.47;3.17;;;;;;;15.90;45.16;99771.88;3578870;40;20052;-64
2021/05/30 08:04:34;;;;;;;4.85;3.28;;;;;;;16.14;44.06;99765.13;3577533;40;20075;-63
2021/05/30 08:07:02;;;;;;;5.20;4.25;;;;;;;16.30;43.78;99764.69;3578635;40;20052;-64
2021/05/30 08:09:29;;;;;;;4.13;3.63;;;;;;;16.36;42.59;99768.38;3578702;40;20296;-63
2021/05/30 08:11:58;;;;;;;4.32;3.92;;;;;;;16.48;43.15;99771.25;3578894;40;20068;-64
2021/05/30 08:14:26;;;;;;;4.63;3.63;;;;;;;16.50;43.03;99770.03;3578269;40;20053;-64
2021/05/30 08:16:53;;;;;;;3.17;2.83;;;;;;;16.55;42.10;99772.06;3578714;40;20089;-64
2021/05/30 08:19:21;;;;;;;4.05;3.00;;;;;;;16.63;40.67;99763.84;3578694;40;20045;-64
2021/05/30 08:21:49;;;;;;;3.47;3.17;;;;;;;16.70;40.91;99769.16;3578748;40;20041;-63
2021/05/30 08:24:16;;;;;;;3.10;2.85;;;;;;;16.77;40.58;99759.31;3578000;40;20053;-63
2021/05/30 08:26:52;;;;;;;4.55;3.00;;;;;;;16.76;40.58;99768.34;3578717;40;20056;-64
2021/05/30 08:29:20;;;;;;;3.60;3.10;;;;;;;16.82;41.10;99765.69;3578829;40;20048;-64
2021/05/30 08:31:49;;;;;;;3.90;3.08;;;;;;;16.95;40.34;99764.00;3578687;40;20049;-64
2021/05/30 08:34:16;;;;;;;4.75;3.92;;;;;;;17.02;40.02;99770.97;3578603;40;20398;-63
2021/05/30 08:36:44;;;;;;;5.40;4.70;;;;;;;16.99;40.68;99768.69;3578660;40;20557;-64
2021/05/30 08:39:12;;;;;;;4.30;3.80;;;;;;;17.08;39.65;99766.63;3578376;40;20061;-63
2021/05/30 08:41:42;;;;;;;3.28;2.97;;;;;;;17.14;40.05;99767.59;3578636;40;20110;-64
2021/05/30 08:44:10;;;;;;;3.65;3.25;;;;;;;17.25;39.75;99766.97;3577828;40;20080;-64
2021/05/30 08:46:37;;;;;;;5.25;3.97;;;;;;;17.40;39.85;99769.38;3578751;40;20386;-64
2021/05/30 08:49:05;;;;;;;4.38;3.60;;;;;;;17.41;40.05;99769.13;3578712;40;20041;-64
2021/05/30 08:51:34;;;;;;;5.15;3.85;;;;;;;17.36;40.64;99765.47;3578442;40;20056;-64
2021/05/30 08:54:07;;;;;;;4.72;3.30;;;;;;;17.34;41.17;99763.81;3577748;40;20146;-64
2021/05/30 08:56:35;;;;;;;4.43;3.83;;;;;;;17.47;41.44;99770.13;3578554;40;20382;-63
2021/05/30 08:59:16;;;;;;;3.95;3.55;;;;;;;17.57;41.25;99759.81;3578325;40;20119;-64
2021/05/30 09:01:44;;;;;;;7.47;3.15;;;;;;;17.68;40.67;99758.31;3577882;40;20057;-64
2021/05/30 09:04:13;;;;;;;3.95;3.40;;;;;;;17.75;39.76;99762.59;3578440;40;20326;-64
2021/05/30 09:06:43;;;;;;;3.47;2.90;;;;;;;17.57;38.95;99760.63;3578453;40;20429;-63
2021/05/30 09:09:13;;;;;;;4.20;3.47;;;;;;;17.69;38.98;99763.44;3578212;40;20037;-63
2021/05/30 09:11:46;;;;;;;4.30;3.33;;;;;;;17.62;38.60;99759.16;3577687;40;20045;-64
2021/05/30 09:14:17;;;;;;;4.00;3.33;;;;;;;17.66;38.95;99755.84;3578289;40;20398;-64
2021/05/30 09:16:59;;;;;;;3.65;3.33;;;;;;;17.64;37.99;99757.91;3579955;40;20041;-64
2021/05/30 09:19:35;;;;;;;3.47;3.17;;;;;;;17.76;38.41;99766.09;3580127;40;20041;-64
2021/05/30 09:22:33;;;;;;;5.05;3.50;;;;;;;17.72;39.71;99754.16;3580307;40;20084;-64
2021/05/30 09:25:16;;;;;;;8.48;7.53;;;;;;;17.87;40.69;99760.03;3558777;40;20053;-64
2021/05/30 09:27:47;;;;;;;5.03;3.78;;;;;;;17.79;40.47;99754.94;3576911;40;20053;-64
2021/05/30 09:30:26;;;;;;;6.35;5.05;;;;;;;17.91;40.71;99761.25;3579722;40;20048;-64
2021/05/30 09:33:07;;;;;;;4.68;3.20;;;;;;;18.17;37.50;99754.06;3579598;40;20059;-64
2021/05/30 09:35:46;;;;;;;3.22;2.92;;;;;;;18.11;37.88;99755.75;3580273;40;20077;-64
2021/05/30 09:38:16;;;;;;;7.82;6.50;;;;;;;18.16;37.30;99755.09;3578379;40;20040;-63
2021/05/30 09:40:46;;;;;;;5.80;5.20;;;;;;;18.14;37.56;99760.66;3579640;40;20041;-64
2021/05/30 09:43:15;;;;;;;3.45;3.22;;;;;;;18.00;37.40;99753.78;3579855;40;20081;-65
2021/05/30 09:45:57;;;;;;;7.32;4.65;;;;;;;17.98;38.23;99748.66;3578757;40;20060;-64
2021/05/30 09:48:25;;;;;;;4.93;4.20;;;;;;;18.11;37.54;99752.25;3579377;40;20287;-64
2021/05/30 09:51:04;;;;;;;5.32;4.13;;;;;;;18.08;37.13;99745.47;3579626;40;20053;-64
2021/05/30 09:53:52;;;;;;;4.38;3.80;;;;;;;18.10;37.30;99754.13;3579837;40;20052;-64
2021/05/30 09:56:35;;;;;;;4.63;3.53;;;;;;;18.19;36.96;99751.97;3579558;40;20049;-65
2021/05/30 09:59:05;;;;;;;5.97;3.80;;;;;;;18.23;36.31;99754.00;3579300;40;20387;-64
2021/05/30 10:01:58;;;;;;;5.78;4.40;;;;;;;18.10;36.07;99743.41;3579833;40;20047;-64
2021/05/30 10:04:27;;;;;;;3.35;2.83;;;;;;;18.32;34.94;99741.97;3579578;40;20421;-64
2021/05/30 10:06:55;;;;;;;5.35;4.45;;;;;;;18.42;34.25;99733.44;3579519;40;20053;-64
2021/05/30 10:09:24;;;;;;;3.08;2.70;;;;;;;18.51;33.51;99744.69;3579522;40;20079;-64
2021/05/30 10:11:52;;;;;;;4.78;3.08;;;;;;;18.62;33.58;99752.00;3579545;40;20442;-64
2021/05/30 10:14:20;;;;;;;2.78;2.50;;;;;;;18.39;33.73;99741.09;3579539;40;20051;-63
2021/05/30 10:16:47;;;;;;;2.65;2.45;;;;;;;18.41;33.46;99736.31;3579401;40;20045;-63
2021/05/30 10:19:19;;;;;;;2.83;2.42;;;;;;;18.66;32.37;99734.44;3579443;40;20394;-64
2021/05/30 10:21:49;;;;;;;3.17;2.40;;;;;;;18.85;32.14;99746.00;3579621;40;20393;-63
2021/05/30 10:24:18;;;;;;;3.28;2.40;;;;;;;18.73;31.54;99732.53;3579677;40;20088;-64
2021/05/30 10:26:47;;;;;;;3.08;2.47;;;;;;;18.66;31.68;99737.13;3579390;40;20045;-64
2021/05/30 10:29:17;;;;;;;4.43;2.50;;;;;;;18.97;31.72;99730.81;3579257;40;20079;-64
2021/05/30 10:31:47;;;;;;;2.70;2.50;;;;;;;19.01;31.46;99734.66;3579359;40;20081;-65
2021/05/30 10:34:18;;;;;;;3.25;3.00;;;;;;;19.20;31.19;99740.84;3578561;40;20130;-65
2021/05/30 10:37:27;;;;;;;4.30;3.75;;;;;;;19.41;30.72;99720.75;3579471;40;20040;-64
2021/05/30 10:39:56;;;;;;;3.22;2.78;;;;;;;19.45;30.37;99737.22;3574230;40;20072;-63
2021/05/30 10:42:26;;;;;;;3.80;2.85;;;;;;;19.26;29.05;99737.25;3579554;40;20417;-65
2021/05/30 10:44:59;;;;;;;2.60;2.40;;;;;;;19.30;29.84;99743.78;3579486;40;20088;-65
2021/05/30 10:48:18;;;;;;;2.53;2.33;;;;;;;19.29;30.31;99734.13;3579272;40;20055;-65
2021/05/30 10:50:55;;;;;;;2.65;2.38;;;;;;;19.41;29.66;99730.66;3579210;40;20076;-64
2021/05/30 10:53:31;;;;;;;2.20;2.00;;;;;;;19.52;29.67;99724.53;3579176;40;20104;-64
2021/05/30 10:56:22;;;;;;;2.63;2.42;;;;;;;19.42;30.07;99722.38;3579164;40;20064;-64
2021/05/30 10:59:33;;;;;;;3.03;2.40;;;;;;;19.49;30.27;99727.66;3579126;40;20044;-64
2021/05/30 11:02:15;;;;;;;3.03;2.55;;;;;;;19.50;30.09;99730.09;3579082;40;20065;-64
2021/05/30 11:04:42;;;;;;;2.72;2.20;;;;;;;19.62;30.26;99730.19;3579330;40;20060;-64
2021/05/30 11:07:45;;;;;;;2.92;2.63;;;;;;;19.73;30.57;99726.72;3578352;40;20052;-64
2021/05/30 11:10:17;;;;;;;3.00;2.80;;;;;;;19.76;30.63;99723.59;3579332;40;20065;-66
2021/05/30 11:12:58;;;;;;;3.35;3.05;;;;;;;19.70;30.96;99711.06;3579177;40;20048;-64
2021/05/30 11:15:27;;;;;;;3.80;2.95;;;;;;;19.84;30.87;99719.75;3580114;40;20055;-64
2021/05/30 11:17:57;;;;;;;7.35;3.08;;;;;;;19.96;31.05;99709.00;3580337;40;20230;-64
2021/05/30 11:20:28;;;;;;;3.83;3.10;;;;;;;20.15;31.30;99720.47;3579964;40;20052;-64
2021/05/30 11:22:58;;;;;;;5.47;2.95;;;;;;;20.26;30.97;99720.47;3579219;40;20057;-64
2021/05/30 11:25:31;;;;;;;3.35;2.90;;;;;;;20.27;30.96;99706.00;3580544;40;20045;-64
2021/05/30 11:28:00;;;;;;;3.47;3.17;;;;;;;20.55;31.00;99706.38;3580257;40;20049;-64
2021/05/30 11:30:59;;;;;;;4.20;3.80;;;;;;;20.76;30.98;99709.25;3579778;40;20053;-64
2021/05/30 11:33:43;;;;;;;3.85;3.10;;;;;;;20.44;30.78;99700.72;3574553;40;20044;-64
2021/05/30 11:36:18;;;;;;;4.25;2.92;;;;;;;20.50;30.78;99699.03;3580881;40;20052;-64
2021/05/30 11:38:51;;;;;;;3.00;2.65;;;;;;;20.28;30.19;99696.88;3578794;40;20051;-64
2021/05/30 11:41:22;;;;;;;4.57;2.75;;;;;;;20.03;30.34;99697.13;3578130;40;20314;-64
2021/05/30 11:44:06;;;;;;;2.40;2.22;;;;;;;20.00;30.11;99694.91;3579090;40;20053;-64